Time;durP1;ratioP1;P1;durP2;ratioP2;P2;SDS_P1;SDS_P2;PMS_P1;PMS_P2;Temp;Humidity;BMP_temperature;BMP_pressure;BME280_temperature;BME280_humidity;BME280_pressure;Samples;Min_cycle;Max_cycle;Signal;HPM_P1;HPM_P2
2021/07/25 00:00:02;;;;;;;9.65;7.15;;;;;;;;;;5018084;28;20102;-74
2021/07/25 00:02:50;;;;;;;8.32;6.80;;;;;;;;;;5014816;28;20090;-73
2021/07/25 00:05:34;;;;;;;10.07;6.45;;;;;;;;;;5026162;28;20095;-73
2021/07/25 00:08:19;;;;;;;7.25;6.32;;;;;;;;;;5027605;28;20128;-73
2021/07/25 00:11:03;;;;;;;9.65;6.63;;;;;;;;;;5019435;28;20159;-71
2021/07/25 00:13:52;;;;;;;8.48;6.43;;;;;;;;;;5022541;28;20037;-71
2021/07/25 00:16:36;;;;;;;8.63;6.15;;;;;;;;;;5020993;28;20055;-72
2021/07/25 00:19:21;;;;;;;6.72;5.78;;;;;;;;;;5012287;28;20103;-71
2021/07/25 00:22:05;;;;;;;6.68;5.85;;;;;;;;;;5020576;28;20099;-73
2021/07/25 00:25:00;;;;;;;7.07;6.13;;;;;;;;;;5013949;28;20044;-73
2021/07/25 00:27:44;;;;;;;7.30;6.20;;;;;;;;;;5016376;28;20040;-72
2021/07/25 00:30:29;;;;;;;8.02;6.45;;;;;;;;;;5001757;28;20036;-72
2021/07/25 00:33:14;;;;;;;7.18;6.22;;;;;;;;;;5024335;28;20045;-71
2021/07/25 00:36:02;;;;;;;8.00;6.15;;;;;;;;;;5023018;28;20121;-71
2021/07/25 00:38:46;;;;;;;7.32;6.07;;;;;;;;;;5020729;28;20099;-71
2021/07/25 00:41:31;;;;;;;6.72;5.75;;;;;;;;;;5024927;28;20048;-73
2021/07/25 00:44:16;;;;;;;7.45;6.35;;;;;;;;;;5010852;28;20095;-71
2021/07/25 00:47:00;;;;;;;7.32;6.38;;;;;;;;;;5005864;28;20052;-71
2021/07/25 00:49:45;;;;;;;7.13;6.28;;;;;;;;;;5020753;28;20110;-72
2021/07/25 00:52:31;;;;;;;7.53;6.03;;;;;;;;;;5033345;28;20044;-74
2021/07/25 00:55:16;;;;;;;6.53;5.57;;;;;;;;;;5023047;28;20084;-72
2021/07/25 00:58:01;;;;;;;7.90;6.35;;;;;;;;;;5010286;28;20054;-73
2021/07/25 01:00:46;;;;;;;7.05;5.90;;;;;;;;;;5023831;28;20646;-74
2021/07/25 01:03:49;;;;;;;6.50;5.80;;;;;;;;;;5027108;28;20508;-73
2021/07/25 01:06:39;;;;;;;7.72;6.00;;;;;;;;;;5025143;28;20123;-73
2021/07/25 01:09:28;;;;;;;8.27;5.82;;;;;;;;;;5030281;28;20078;-73
2021/07/25 01:12:29;;;;;;;6.60;5.32;;;;;;;;;;5010286;28;20045;-73
2021/07/25 01:15:14;;;;;;;6.55;5.80;;;;;;;;;;5024045;28;20064;-73
2021/07/25 01:17:59;;;;;;;5.97;5.35;;;;;;;;;;5024364;28;20060;-72
2021/07/25 01:20:44;;;;;;;6.45;5.78;;;;;;;;;;5024104;28;20079;-73
2021/07/25 01:23:29;;;;;;;7.18;5.78;;;;;;;;;;5024722;28;20668;-71
2021/07/25 01:26:13;;;;;;;6.72;5.25;;;;;;;;;;5025673;28;20445;-74
2021/07/25 01:28:59;;;;;;;7.05;6.13;;;;;;;;;;5024284;28;20124;-71
2021/07/25 01:31:44;;;;;;;6.45;5.57;;;;;;;;;;5009845;28;20055;-72
2021/07/25 01:34:29;;;;;;;6.45;5.50;;;;;;;;;;5023009;28;20049;-73
2021/07/25 01:37:14;;;;;;;7.10;6.07;;;;;;;;;;5020352;28;20115;-71
2021/07/25 01:39:58;;;;;;;6.07;5.15;;;;;;;;;;5024951;28;20068;-71
2021/07/25 01:42:43;;;;;;;6.93;5.57;;;;;;;;;;5005786;28;20547;-71
2021/07/25 01:45:27;;;;;;;6.30;5.57;;;;;;;;;;5022806;28;20827;-71
2021/07/25 01:48:11;;;;;;;7.72;5.80;;;;;;;;;;5016388;28;20041;-71
2021/07/25 01:50:56;;;;;;;6.20;5.45;;;;;;;;;;5014892;28;20040;-71
2021/07/25 01:53:40;;;;;;;7.63;5.55;;;;;;;;;;5011281;28;20697;-71
2021/07/25 01:56:25;;;;;;;8.07;5.75;;;;;;;;;;5027488;28;20048;-71
2021/07/25 01:59:10;;;;;;;7.43;5.45;;;;;;;;;;5022943;28;20187;-71
2021/07/25 02:01:54;;;;;;;6.68;5.70;;;;;;;;;;5024188;28;20056;-71
2021/07/25 02:04:39;;;;;;;6.28;5.40;;;;;;;;;;5017662;28;20099;-71
2021/07/25 02:07:23;;;;;;;6.40;5.60;;;;;;;;;;5022820;28;20079;-71
2021/07/25 02:10:08;;;;;;;6.60;5.78;;;;;;;;;;5025841;28;20056;-71
2021/07/25 02:12:53;;;;;;;6.55;5.30;;;;;;;;;;5020749;28;20055;-71
2021/07/25 02:15:37;;;;;;;6.68;5.88;;;;;;;;;;5026141;28;20047;-71
2021/07/25 02:18:22;;;;;;;6.60;5.63;;;;;;;;;;5021906;28;20430;-71
2021/07/25 02:21:07;;;;;;;7.00;5.72;;;;;;;;;;5016428;28;20091;-71
2021/07/25 02:23:51;;;;;;;7.30;5.45;;;;;;;;;;5021208;28;20147;-71
2021/07/25 02:26:36;;;;;;;5.82;5.22;;;;;;;;;;5027070;28;20045;-72
2021/07/25 02:29:20;;;;;;;6.18;5.55;;;;;;;;;;5023674;28;20396;-71
2021/07/25 02:32:05;;;;;;;7.22;5.53;;;;;;;;;;5016990;28;20573;-71
2021/07/25 02:34:50;;;;;;;7.18;5.30;;;;;;;;;;5025903;28;20044;-71
2021/07/25 02:37:35;;;;;;;7.07;5.72;;;;;;;;;;5024982;28;20052;-71
2021/07/25 02:40:19;;;;;;;7.03;5.80;;;;;;;;;;5025751;28;20060;-71
2021/07/25 02:43:04;;;;;;;7.07;5.68;;;;;;;;;;5027167;28;20102;-71
2021/07/25 02:45:49;;;;;;;6.60;5.70;;;;;;;;;;5023002;28;20036;-71
2021/07/25 02:48:34;;;;;;;7.03;5.55;;;;;;;;;;5027021;28;20036;-71
2021/07/25 02:51:19;;;;;;;5.88;5.22;;;;;;;;;;5027475;28;20091;-72
2021/07/25 02:54:04;;;;;;;7.30;5.85;;;;;;;;;;5026651;28;20044;-72
2021/07/25 02:56:48;;;;;;;6.55;5.35;;;;;;;;;;5024954;28;20032;-71
2021/07/25 02:59:33;;;;;;;6.70;5.43;;;;;;;;;;5020987;28;20098;-72
2021/07/25 03:02:17;;;;;;;7.20;5.47;;;;;;;;;;5026366;28;20096;-72
2021/07/25 03:05:02;;;;;;;6.18;5.38;;;;;;;;;;5016280;28;20505;-72
2021/07/25 03:07:46;;;;;;;7.05;5.68;;;;;;;;;;5025299;28;20048;-71
2021/07/25 03:10:31;;;;;;;7.07;5.65;;;;;;;;;;5025404;28;20036;-72
2021/07/25 03:13:16;;;;;;;5.88;5.28;;;;;;;;;;5009595;28;20164;-72
2021/07/25 03:16:01;;;;;;;7.30;6.05;;;;;;;;;;5029327;28;20084;-72
2021/07/25 03:18:46;;;;;;;7.00;5.68;;;;;;;;;;5029436;28;20052;-72
2021/07/25 03:21:30;;;;;;;7.30;5.80;;;;;;;;;;5029964;28;20060;-72
2021/07/25 03:24:14;;;;;;;6.32;5.63;;;;;;;;;;5021001;28;20406;-72
2021/07/25 03:26:59;;;;;;;6.03;5.38;;;;;;;;;;5030340;28;20133;-72
2021/07/25 03:29:43;;;;;;;6.70;5.60;;;;;;;;;;5029848;28;20162;-72
2021/07/25 03:32:28;;;;;;;6.85;5.47;;;;;;;;;;5025134;28;20068;-72
2021/07/25 03:35:12;;;;;;;7.20;5.15;;;;;;;;;;5029408;28;20620;-71
2021/07/25 03:37:57;;;;;;;6.97;5.40;;;;;;;;;;5029030;28;20256;-71
2021/07/25 03:40:43;;;;;;;5.78;5.18;;;;;;;;;;5028747;28;20250;-71
2021/07/25 03:43:28;;;;;;;6.07;5.47;;;;;;;;;;5029478;28;20075;-71
2021/07/25 03:46:12;;;;;;;6.30;5.40;;;;;;;;;;5032696;28;20130;-72
2021/07/25 03:48:57;;;;;;;5.95;5.28;;;;;;;;;;5023969;28;20048;-72
2021/07/25 03:51:41;;;;;;;6.45;5.18;;;;;;;;;;5028721;28;20040;-72
2021/07/25 03:54:27;;;;;;;6.57;5.45;;;;;;;;;;5026174;28;20053;-72
2021/07/25 03:57:12;;;;;;;5.85;4.93;;;;;;;;;;5027016;28;20043;-71
2021/07/25 03:59:56;;;;;;;5.82;5.10;;;;;;;;;;5029628;28;20098;-72
2021/07/25 04:02:41;;;;;;;6.90;5.40;;;;;;;;;;5028799;28;20036;-72
2021/07/25 04:05:25;;;;;;;5.90;5.20;;;;;;;;;;5024350;28;20048;-71
2021/07/25 04:08:10;;;;;;;6.10;5.38;;;;;;;;;;5013788;28;20076;-72
2021/07/25 04:10:55;;;;;;;6.38;5.28;;;;;;;;;;5014801;28;20681;-72
2021/07/25 04:13:39;;;;;;;6.85;5.30;;;;;;;;;;5028470;28;20112;-72
2021/07/25 04:16:24;;;;;;;7.40;5.80;;;;;;;;;;5029306;28;20198;-72
2021/07/25 04:19:08;;;;;;;7.35;5.43;;;;;;;;;;5028136;28;20533;-71
2021/07/25 04:21:53;;;;;;;6.32;5.00;;;;;;;;;;5027958;28;20076;-71
2021/07/25 04:24:37;;;;;;;6.50;5.30;;;;;;;;;;5025685;28;20044;-72
2021/07/25 04:27:22;;;;;;;6.65;4.93;;;;;;;;;;5029452;28;20056;-72
2021/07/25 04:30:07;;;;;;;6.13;5.15;;;;;;;;;;5022762;28;20045;-72
2021/07/25 04:32:52;;;;;;;6.88;4.97;;;;;;;;;;5028371;28;20121;-72
2021/07/25 04:35:38;;;;;;;6.03;5.20;;;;;;;;;;5029021;28;20596;-71
2021/07/25 04:38:23;;;;;;;6.75;5.43;;;;;;;;;;5028568;28;20051;-71
2021/07/25 04:41:11;;;;;;;6.43;4.95;;;;;;;;;;5027498;28;20036;-71
2021/07/25 04:44:02;;;;;;;6.32;5.13;;;;;;;;;;5020183;28;20037;-72
2021/07/25 04:46:47;;;;;;;6.15;5.05;;;;;;;;;;5025061;28;20049;-72
2021/07/25 04:49:33;;;;;;;5.85;5.15;;;;;;;;;;5026109;28;20080;-72
2021/07/25 04:52:17;;;;;;;6.35;5.40;;;;;;;;;;5010277;28;20120;-73
2021/07/25 04:55:02;;;;;;;7.00;5.13;;;;;;;;;;5019712;28;20203;-72
2021/07/25 04:57:47;;;;;;;6.05;4.72;;;;;;;;;;5011914;28;20098;-72
2021/07/25 05:00:31;;;;;;;5.97;4.85;;;;;;;;;;5024523;28;20091;-72
2021/07/25 05:03:16;;;;;;;5.97;5.20;;;;;;;;;;5019228;28;20076;-72
2021/07/25 05:06:01;;;;;;;5.65;5.10;;;;;;;;;;5023451;28;20103;-71
2021/07/25 05:08:46;;;;;;;5.88;5.20;;;;;;;;;;5021212;28;20063;-72
2021/07/25 05:11:39;;;;;;;6.93;5.00;;;;;;;;;;5006606;28;20111;-72
2021/07/25 05:14:31;;;;;;;6.40;5.30;;;;;;;;;;5006095;28;20237;-74
2021/07/25 05:17:39;;;;;;;5.22;4.63;;;;;;;;;;5024298;28;20071;-72
2021/07/25 05:20:27;;;;;;;6.68;5.00;;;;;;;;;;4999863;28;20128;-72
2021/07/25 05:23:22;;;;;;;7.38;5.20;;;;;;;;;;5021314;28;20084;-72
2021/07/25 05:26:06;;;;;;;5.80;4.88;;;;;;;;;;5006929;28;20149;-73
2021/07/25 05:28:52;;;;;;;5.82;4.90;;;;;;;;;;5015624;28;20071;-72
2021/07/25 05:31:36;;;;;;;7.28;5.25;;;;;;;;;;4997203;28;20106;-72
2021/07/25 05:34:21;;;;;;;7.95;4.85;;;;;;;;;;5008942;28;20715;-72
2021/07/25 05:37:06;;;;;;;6.00;4.82;;;;;;;;;;5021946;28;20063;-72
2021/07/25 05:39:50;;;;;;;6.47;5.28;;;;;;;;;;5025325;28;20036;-72
2021/07/25 05:42:35;;;;;;;6.63;5.38;;;;;;;;;;5024323;28;20051;-72
2021/07/25 05:45:19;;;;;;;7.10;5.38;;;;;;;;;;5005865;28;20092;-72
2021/07/25 05:48:04;;;;;;;8.70;5.00;;;;;;;;;;5009692;28;20217;-72
2021/07/25 05:50:50;;;;;;;6.45;5.13;;;;;;;;;;5012335;28;20064;-73
2021/07/25 05:53:34;;;;;;;6.70;5.38;;;;;;;;;;5021700;28;20120;-72
2021/07/25 05:56:19;;;;;;;7.03;5.15;;;;;;;;;;5024304;28;20044;-72
2021/07/25 05:59:04;;;;;;;6.20;5.22;;;;;;;;;;5023536;28;20056;-73
2021/07/25 06:01:48;;;;;;;6.15;5.30;;;;;;;;;;5021490;28;20586;-72
2021/07/25 06:04:33;;;;;;;7.00;5.15;;;;;;;;;;5022706;28;20539;-72
2021/07/25 06:07:18;;;;;;;7.03;4.85;;;;;;;;;;5023755;28;20075;-72
2021/07/25 06:10:02;;;;;;;6.32;5.10;;;;;;;;;;5025814;28;20515;-72
2021/07/25 06:12:47;;;;;;;5.70;4.68;;;;;;;;;;5023174;28;20457;-72
2021/07/25 06:15:32;;;;;;;5.10;4.50;;;;;;;;;;5014036;28;20085;-72
2021/07/25 06:18:17;;;;;;;6.07;4.85;;;;;;;;;;5023439;28;20079;-72
2021/07/25 06:21:02;;;;;;;6.75;5.30;;;;;;;;;;5021727;28;20277;-72
2021/07/25 06:23:47;;;;;;;5.70;4.72;;;;;;;;;;5013647;28;20099;-73
2021/07/25 06:26:32;;;;;;;5.80;4.95;;;;;;;;;;5020908;28;20040;-72
2021/07/25 06:29:16;;;;;;;6.15;4.75;;;;;;;;;;5023998;28;20044;-72
2021/07/25 06:32:01;;;;;;;6.20;5.22;;;;;;;;;;5023293;28;20107;-72
2021/07/25 06:34:46;;;;;;;5.53;4.80;;;;;;;;;;5024601;28;20572;-72
2021/07/25 06:37:31;;;;;;;5.38;4.45;;;;;;;;;;5024676;28;20574;-72
2021/07/25 06:40:15;;;;;;;6.75;4.97;;;;;;;;;;5000684;28;20505;-72
2021/07/25 06:43:00;;;;;;;6.22;5.10;;;;;;;;;;5009685;28;20032;-72
2021/07/25 06:45:45;;;;;;;6.28;5.07;;;;;;;;;;5024328;28;20635;-72
2021/07/25 06:48:32;;;;;;;5.70;4.78;;;;;;;;;;5010304;28;20083;-72
2021/07/25 06:51:17;;;;;;;6.57;5.00;;;;;;;;;;5006983;28;20061;-72
2021/07/25 06:54:01;;;;;;;6.43;4.72;;;;;;;;;;5024787;28;20044;-72
2021/07/25 06:56:46;;;;;;;5.55;4.85;;;;;;;;;;5008565;28;20040;-72
2021/07/25 06:59:31;;;;;;;6.72;5.07;;;;;;;;;;5024923;28;20148;-72
2021/07/25 07:02:15;;;;;;;6.10;5.00;;;;;;;;;;5022556;28;20091;-72
2021/07/25 07:05:00;;;;;;;7.13;4.95;;;;;;;;;;5024423;28;20045;-72
2021/07/25 07:07:45;;;;;;;5.63;4.80;;;;;;;;;;5024755;28;20044;-73
2021/07/25 07:10:33;;;;;;;6.50;5.03;;;;;;;;;;5005312;28;20048;-72
2021/07/25 07:13:18;;;;;;;5.13;4.60;;;;;;;;;;5022643;28;20464;-72
2021/07/25 07:16:03;;;;;;;4.88;4.38;;;;;;;;;;5041635;28;20086;-72
2021/07/25 07:18:48;;;;;;;5.68;5.05;;;;;;;;;;5022171;28;20148;-72
2021/07/25 07:21:33;;;;;;;5.25;4.75;;;;;;;;;;4993933;28;20092;-72
2021/07/25 07:24:17;;;;;;;6.47;5.20;;;;;;;;;;5006692;28;20502;-72
2021/07/25 07:27:02;;;;;;;5.03;4.50;;;;;;;;;;5011085;28;20051;-72
2021/07/25 07:29:46;;;;;;;6.00;4.85;;;;;;;;;;5022533;28;20088;-72
2021/07/25 07:32:31;;;;;;;5.30;4.70;;;;;;;;;;5024497;28;20107;-72
2021/07/25 07:35:15;;;;;;;6.32;5.20;;;;;;;;;;5009473;28;20076;-73
2021/07/25 07:38:00;;;;;;;5.60;4.93;;;;;;;;;;5023125;28;20132;-72
2021/07/25 07:40:45;;;;;;;5.53;4.70;;;;;;;;;;5014759;28;20472;-72
2021/07/25 07:43:29;;;;;;;5.85;5.13;;;;;;;;;;5022619;28;20663;-72
2021/07/25 07:46:14;;;;;;;5.97;5.03;;;;;;;;;;5022857;28;20130;-74
2021/07/25 07:48:59;;;;;;;5.80;4.60;;;;;;;;;;5020947;28;20048;-72
2021/07/25 07:51:44;;;;;;;5.18;4.45;;;;;;;;;;5023297;28;20111;-72
2021/07/25 07:54:28;;;;;;;5.70;4.70;;;;;;;;;;5021185;28;20059;-72
2021/07/25 07:57:13;;;;;;;6.40;5.00;;;;;;;;;;5021013;28;20041;-72
2021/07/25 07:59:57;;;;;;;5.53;4.45;;;;;;;;;;5020821;28;20106;-72
2021/07/25 08:02:42;;;;;;;4.93;4.30;;;;;;;;;;5025303;28;20218;-72
2021/07/25 08:05:27;;;;;;;9.23;5.03;;;;;;;;;;5027539;28;20060;-72
2021/07/25 08:08:12;;;;;;;5.13;4.53;;;;;;;;;;5026099;28;20052;-72
2021/07/25 08:10:56;;;;;;;5.20;4.63;;;;;;;;;;5024778;28;20629;-73
2021/07/25 08:13:43;;;;;;;5.90;4.68;;;;;;;;;;5023711;28;20048;-72
2021/07/25 08:16:27;;;;;;;5.97;4.65;;;;;;;;;;5031415;28;20043;-73
2021/07/25 08:19:12;;;;;;;5.30;4.80;;;;;;;;;;5033300;28;20520;-72
2021/07/25 08:21:56;;;;;;;5.88;4.43;;;;;;;;;;5034052;28;20869;-72
2021/07/25 08:24:41;;;;;;;7.10;4.60;;;;;;;;;;5031710;28;20165;-74
2021/07/25 08:27:25;;;;;;;6.25;4.70;;;;;;;;;;5035617;28;20135;-72
2021/07/25 08:30:10;;;;;;;6.68;4.80;;;;;;;;;;5031319;28;20044;-72
2021/07/25 08:32:55;;;;;;;5.55;4.82;;;;;;;;;;5032958;28;20149;-72
2021/07/25 08:35:40;;;;;;;5.57;4.80;;;;;;;;;;5016734;28;20091;-72
2021/07/25 08:38:24;;;;;;;7.03;4.93;;;;;;;;;;5038015;28;20517;-73
2021/07/25 08:41:11;;;;;;;6.53;4.90;;;;;;;;;;5024819;28;20029;-72
2021/07/25 08:44:06;;;;;;;5.90;4.72;;;;;;;;;;5032644;28;20682;-72
2021/07/25 08:46:55;;;;;;;5.38;4.68;;;;;;;;;;5021667;28;20036;-73
2021/07/25 08:49:50;;;;;;;5.32;4.43;;;;;;;;;;5028891;28;20098;-73
2021/07/25 08:52:35;;;;;;;7.03;4.90;;;;;;;;;;5025642;28;20596;-73
2021/07/25 08:55:20;;;;;;;5.65;4.55;;;;;;;;;;5023965;28;20044;-73
2021/07/25 08:58:07;;;;;;;5.95;4.68;;;;;;;;;;5001790;28;20092;-73
2021/07/25 09:00:52;;;;;;;5.10;4.60;;;;;;;;;;5019312;28;20083;-73
2021/07/25 09:03:37;;;;;;;6.22;5.10;;;;;;;;;;5022890;28;20402;-73
2021/07/25 09:06:21;;;;;;;8.13;5.18;;;;;;;;;;5021725;28;20524;-73
2021/07/25 09:09:06;;;;;;;5.47;4.85;;;;;;;;;;5022472;28;20169;-74
2021/07/25 09:11:51;;;;;;;6.15;5.00;;;;;;;;;;5020719;28;20111;-73
2021/07/25 09:14:35;;;;;;;6.55;4.80;;;;;;;;;;5025232;28;20215;-73
2021/07/25 09:17:20;;;;;;;5.70;4.80;;;;;;;;;;5010519;28;20598;-73
2021/07/25 09:20:21;;;;;;;6.57;4.68;;;;;;;;;;5026332;28;20646;-73
2021/07/25 09:23:09;;;;;;;8.77;5.15;;;;;;;;;;5021229;28;20033;-72
2021/07/25 09:25:54;;;;;;;10.48;5.25;;;;;;;;;;5024800;28;20112;-73
2021/07/25 09:28:39;;;;;;;7.10;5.22;;;;;;;;;;5019773;28;20044;-73
2021/07/25 09:31:28;;;;;;;6.10;5.07;;;;;;;;;;5018105;28;20406;-74
2021/07/25 09:34:34;;;;;;;6.10;4.82;;;;;;;;;;5024984;28;20051;-73
2021/07/25 09:37:21;;;;;;;5.82;4.70;;;;;;;;;;5019998;28;20064;-73
2021/07/25 09:40:06;;;;;;;8.45;5.15;;;;;;;;;;5016225;28;20044;-73
2021/07/25 09:42:51;;;;;;;8.23;5.47;;;;;;;;;;5027277;28;20402;-73
2021/07/25 09:45:53;;;;;;;7.65;5.03;;;;;;;;;;5005437;28;20151;-74
2021/07/25 09:48:38;;;;;;;7.43;5.30;;;;;;;;;;5022424;28;20128;-74
2021/07/25 09:51:22;;;;;;;14.43;5.10;;;;;;;;;;5014304;28;20715;-78
2021/07/25 09:54:07;;;;;;;6.40;4.80;;;;;;;;;;5023074;28;20035;-74
2021/07/25 09:56:52;;;;;;;7.97;5.18;;;;;;;;;;5022955;28;20032;-72
2021/07/25 09:59:36;;;;;;;8.63;5.40;;;;;;;;;;5021248;28;20045;-74
2021/07/25 10:02:31;;;;;;;6.32;4.95;;;;;;;;;;5022386;28;20036;-73
2021/07/25 10:05:19;;;;;;;7.68;5.22;;;;;;;;;;5022682;28;20052;-73
2021/07/25 10:08:04;;;;;;;8.32;6.00;;;;;;;;;;5018079;28;20091;-73
2021/07/25 10:10:49;;;;;;;6.63;5.82;;;;;;;;;;5023167;28;20458;-73
2021/07/25 10:13:33;;;;;;;8.98;5.75;;;;;;;;;;5006212;28;20088;-73
2021/07/25 10:16:18;;;;;;;7.97;5.68;;;;;;;;;;5018782;28;20505;-73
2021/07/25 10:19:04;;;;;;;7.45;5.47;;;;;;;;;;5020836;28;20091;-73
2021/07/25 10:21:49;;;;;;;8.07;5.50;;;;;;;;;;5024564;28;20036;-73
2021/07/25 10:24:33;;;;;;;9.20;5.70;;;;;;;;;;5015469;28;20453;-73
2021/07/25 10:27:19;;;;;;;11.30;7.13;;;;;;;;;;5021606;28;20068;-73
2021/07/25 10:30:05;;;;;;;14.77;8.88;;;;;;;;;;5023897;28;20098;-73
2021/07/25 10:32:49;;;;;;;19.20;10.55;;;;;;;;;;5010485;28;20104;-73
2021/07/25 10:35:34;;;;;;;19.15;10.98;;;;;;;;;;5024911;28;20878;-73
2021/07/25 10:38:18;;;;;;;33.72;17.08;;;;;;;;;;5019231;28;20051;-73
2021/07/25 10:41:03;;;;;;;38.63;18.65;;;;;;;;;;5022658;28;20099;-73
2021/07/25 10:43:47;;;;;;;34.50;19.38;;;;;;;;;;5023402;28;20078;-73
2021/07/25 10:46:33;;;;;;;28.40;17.05;;;;;;;;;;5022492;28;20120;-73
2021/07/25 10:49:18;;;;;;;27.95;15.30;;;;;;;;;;5022943;28;20044;-73
2021/07/25 10:52:03;;;;;;;28.73;14.75;;;;;;;;;;5014073;28;20043;-73
2021/07/25 10:54:48;;;;;;;28.17;16.42;;;;;;;;;;5021555;28;20091;-73
2021/07/25 10:57:42;;;;;;;26.33;14.88;;;;;;;;;;5017964;28;20048;-74
2021/07/25 11:00:43;;;;;;;32.13;16.25;;;;;;;;;;5022264;28;20096;-73
2021/07/25 11:03:31;;;;;;;22.42;14.70;;;;;;;;;;5016089;28;20540;-73
2021/07/25 11:06:15;;;;;;;27.95;15.38;;;;;;;;;;5024638;28;20048;-74
2021/07/25 11:09:00;;;;;;;30.40;16.25;;;;;;;;;;5015246;28;20457;-74
2021/07/25 11:11:47;;;;;;;26.80;15.68;;;;;;;;;;5005496;28;20048;-74
2021/07/25 11:15:11;;;;;;;26.27;15.57;;;;;;;;;;5018566;28;20489;-73
2021/07/25 11:17:56;;;;;;;24.13;14.25;;;;;;;;;;4961788;28;20089;-74
2021/07/25 11:20:50;;;;;;;25.13;14.70;;;;;;;;;;4947975;28;20121;-74
2021/07/25 11:23:38;;;;;;;26.23;15.52;;;;;;;;;;5014326;28;20462;-74
2021/07/25 11:26:35;;;;;;;24.77;14.52;;;;;;;;;;5019179;28;20561;-73
2021/07/25 11:29:23;;;;;;;25.73;15.40;;;;;;;;;;5016178;28;20076;-74
2021/07/25 11:32:31;;;;;;;21.60;14.23;;;;;;;;;;5005692;28;20139;-74
2021/07/25 11:35:16;;;;;;;23.55;14.05;;;;;;;;;;5025140;28;20146;-74
2021/07/25 11:38:01;;;;;;;20.73;14.05;;;;;;;;;;5012892;28;20036;-73
2021/07/25 11:40:46;;;;;;;22.40;13.68;;;;;;;;;;5015786;28;20124;-73
2021/07/25 11:43:49;;;;;;;21.27;13.93;;;;;;;;;;5027059;28;20055;-73
2021/07/25 11:46:34;;;;;;;18.80;12.27;;;;;;;;;;5026228;28;20079;-74
2021/07/25 11:49:22;;;;;;;21.42;13.25;;;;;;;;;;5027815;28;20107;-72
2021/07/25 11:52:10;;;;;;;20.00;12.80;;;;;;;;;;5026484;28;20099;-73
2021/07/25 11:54:55;;;;;;;19.60;11.15;;;;;;;;;;5027181;28;20087;-74
2021/07/25 11:57:39;;;;;;;20.63;12.43;;;;;;;;;;5020209;28;20077;-74
2021/07/25 12:00:24;;;;;;;18.58;11.80;;;;;;;;;;5024443;28;20040;-73
2021/07/25 12:03:09;;;;;;;17.17;11.35;;;;;;;;;;5024548;28;20036;-74
2021/07/25 12:06:09;;;;;;;18.45;11.55;;;;;;;;;;5025667;28;20124;-74
2021/07/25 12:09:02;;;;;;;16.02;11.27;;;;;;;;;;5026369;28;20039;-73
2021/07/25 12:11:47;;;;;;;18.02;10.82;;;;;;;;;;5013155;28;20493;-74
2021/07/25 12:14:33;;;;;;;15.13;11.07;;;;;;;;;;5023635;28;20477;-74
2021/07/25 12:17:36;;;;;;;16.77;11.23;;;;;;;;;;5025240;28;20083;-74
2021/07/25 12:20:21;;;;;;;16.27;10.65;;;;;;;;;;5024630;28;20509;-74
2021/07/25 12:23:07;;;;;;;16.23;11.27;;;;;;;;;;5010575;28;20040;-74
2021/07/25 12:25:53;;;;;;;13.95;10.13;;;;;;;;;;4996919;28;20032;-74
2021/07/25 12:28:38;;;;;;;15.55;10.95;;;;;;;;;;5024099;28;20040;-74
2021/07/25 12:31:23;;;;;;;17.08;11.45;;;;;;;;;;5020462;28;20494;-74
2021/07/25 12:34:07;;;;;;;14.55;10.70;;;;;;;;;;5024094;28;20129;-74
2021/07/25 12:36:52;;;;;;;13.63;10.32;;;;;;;;;;5025886;28;20043;-74
2021/07/25 12:39:36;;;;;;;15.43;10.48;;;;;;;;;;5024232;28;20123;-80
2021/07/25 12:42:37;;;;;;;14.68;10.50;;;;;;;;;;5005734;28;20040;-74
2021/07/25 12:45:33;;;;;;;14.75;10.88;;;;;;;;;;5009443;28;20510;-74
2021/07/25 12:48:23;;;;;;;12.98;9.75;;;;;;;;;;5007229;28;20513;-74
2021/07/25 12:54:01;;;;;;;13.73;9.20;;;;;;;;;;5026053;28;20044;-76
2021/07/25 12:56:46;;;;;;;13.20;10.10;;;;;;;;;;5026566;28;20037;-75
2021/07/25 12:59:30;;;;;;;12.95;9.55;;;;;;;;;;5019672;28;20052;-75
2021/07/25 13:05:20;;;;;;;14.35;9.95;;;;;;;;;;5021166;28;20057;-75
2021/07/25 13:08:04;;;;;;;12.05;9.20;;;;;;;;;;5023720;28;20032;-74
2021/07/25 13:10:49;;;;;;;13.18;9.35;;;;;;;;;;5024891;28;20071;-75
2021/07/25 13:13:33;;;;;;;13.88;9.35;;;;;;;;;;5008260;28;22088;-75
2021/07/25 13:16:18;;;;;;;13.27;9.45;;;;;;;;;;5011614;28;20047;-74
2021/07/25 13:19:03;;;;;;;14.27;8.82;;;;;;;;;;5009131;28;20052;-75
2021/07/25 13:21:48;;;;;;;13.13;9.02;;;;;;;;;;5026868;28;20401;-75
2021/07/25 13:24:32;;;;;;;12.68;9.38;;;;;;;;;;5031062;28;20082;-75
2021/07/25 13:27:17;;;;;;;12.38;9.15;;;;;;;;;;5031219;28;20099;-74
2021/07/25 13:30:02;;;;;;;11.95;9.40;;;;;;;;;;5025254;28;20426;-74
2021/07/25 13:32:46;;;;;;;10.68;8.77;;;;;;;;;;5029767;28;20041;-74
2021/07/25 13:35:31;;;;;;;10.80;8.40;;;;;;;;;;5025358;28;20052;-74
2021/07/25 13:38:15;;;;;;;11.32;8.68;;;;;;;;;;5021920;28;20552;-73
2021/07/25 13:41:00;;;;;;;12.55;9.13;;;;;;;;;;5012001;28;20107;-74
2021/07/25 13:43:49;;;;;;;12.55;9.25;;;;;;;;;;5032066;28;20972;-75
2021/07/25 13:49:37;;;;;;;11.40;8.75;;;;;;;;;;5037436;28;20040;-75
2021/07/25 13:52:21;;;;;;;11.45;8.77;;;;;;;;;;5026428;28;20088;-74
2021/07/25 13:55:06;;;;;;;9.65;7.80;;;;;;;;;;5030802;28;20106;-75
2021/07/25 13:57:51;;;;;;;10.63;8.07;;;;;;;;;;5025342;28;20072;-75
2021/07/25 14:00:35;;;;;;;13.30;8.45;;;;;;;;;;5031359;28;20040;-75
2021/07/25 14:03:20;;;;;;;10.18;8.25;;;;;;;;;;5027035;28;20146;-75
2021/07/25 14:06:04;;;;;;;9.57;8.40;;;;;;;;;;5033044;28;20145;-76
2021/07/25 14:08:49;;;;;;;9.00;7.38;;;;;;;;;;5032687;28;20082;-75
2021/07/25 14:11:33;;;;;;;9.98;8.10;;;;;;;;;;5024551;28;20095;-75
2021/07/25 14:14:18;;;;;;;9.02;7.43;;;;;;;;;;5033159;28;20128;-75
2021/07/25 14:17:06;;;;;;;10.63;8.02;;;;;;;;;;5030449;28;20036;-76
2021/07/25 14:19:54;;;;;;;9.32;8.18;;;;;;;;;;5015039;28;20056;-75
2021/07/25 14:22:38;;;;;;;10.40;8.40;;;;;;;;;;5033254;28;20036;-75
2021/07/25 14:25:23;;;;;;;9.55;7.90;;;;;;;;;;5030597;28;20142;-74
2021/07/25 14:28:07;;;;;;;8.75;7.38;;;;;;;;;;5029968;28;20490;-74
2021/07/25 14:30:53;;;;;;;10.93;8.00;;;;;;;;;;5011650;28;21612;-78
2021/07/25 14:33:38;;;;;;;10.65;8.52;;;;;;;;;;5032273;28;20501;-76
2021/07/25 14:36:25;;;;;;;9.27;7.40;;;;;;;;;;5031636;28;20040;-76
2021/07/25 14:39:10;;;;;;;9.15;7.80;;;;;;;;;;5023677;28;20379;-74
2021/07/25 14:41:54;;;;;;;10.85;7.43;;;;;;;;;;5022610;28;20063;-74
2021/07/25 14:44:39;;;;;;;9.45;7.28;;;;;;;;;;5024759;28;20505;-74
2021/07/25 14:47:23;;;;;;;11.45;8.25;;;;;;;;;;5023446;28;20604;-73
2021/07/25 14:50:08;;;;;;;10.27;8.15;;;;;;;;;;5023596;28;20045;-75
2021/07/25 14:52:53;;;;;;;10.88;7.82;;;;;;;;;;5022352;28;20040;-77
2021/07/25 14:55:37;;;;;;;10.85;8.00;;;;;;;;;;5020879;28;20040;-77
2021/07/25 14:58:22;;;;;;;10.88;7.93;;;;;;;;;;5014713;28;20529;-76
2021/07/25 15:01:13;;;;;;;9.00;7.72;;;;;;;;;;5019614;28;20080;-77
2021/07/25 15:03:57;;;;;;;10.57;7.65;;;;;;;;;;5009138;28;20083;-76
2021/07/25 15:06:43;;;;;;;9.95;7.60;;;;;;;;;;5016652;28;20643;-75
2021/07/25 15:09:28;;;;;;;9.63;7.80;;;;;;;;;;5027345;28;20477;-75
2021/07/25 15:12:12;;;;;;;10.00;7.35;;;;;;;;;;5027926;28;20117;-77
2021/07/25 15:14:57;;;;;;;9.25;7.80;;;;;;;;;;5027113;28;20498;-75
2021/07/25 15:17:41;;;;;;;9.25;7.70;;;;;;;;;;5023165;28;20040;-76
2021/07/25 15:20:26;;;;;;;8.35;7.35;;;;;;;;;;5031242;28;20060;-75
2021/07/25 15:23:10;;;;;;;10.88;8.35;;;;;;;;;;5035056;28;20036;-76
2021/07/25 15:25:55;;;;;;;8.50;7.53;;;;;;;;;;5032065;28;20044;-75
2021/07/25 15:28:39;;;;;;;9.68;7.63;;;;;;;;;;5031999;28;20111;-75
2021/07/25 15:31:25;;;;;;;8.68;7.30;;;;;;;;;;5034661;28;20052;-75
2021/07/25 15:34:10;;;;;;;9.60;8.00;;;;;;;;;;5033288;28;20595;-77
2021/07/25 15:36:55;;;;;;;10.90;7.65;;;;;;;;;;5038299;28;20591;-75
2021/07/25 15:39:39;;;;;;;10.35;7.93;;;;;;;;;;5030502;28;20045;-75
2021/07/25 15:42:24;;;;;;;9.93;8.00;;;;;;;;;;5036079;28;20051;-76
2021/07/25 15:45:10;;;;;;;10.25;7.68;;;;;;;;;;5028694;28;20059;-76
2021/07/25 15:47:54;;;;;;;10.70;7.95;;;;;;;;;;5033976;28;20079;-76
2021/07/25 15:50:39;;;;;;;9.48;7.13;;;;;;;;;;5031207;28;20175;-76
2021/07/25 15:53:24;;;;;;;9.52;7.65;;;;;;;;;;5043177;28;20039;-75
2021/07/25 15:56:08;;;;;;;9.05;7.20;;;;;;;;;;5028797;28;20044;-75
2021/07/25 15:58:53;;;;;;;8.80;7.90;;;;;;;;;;5025881;28;20138;-77
2021/07/25 16:01:38;;;;;;;12.73;7.40;;;;;;;;;;5023427;28;20088;-76
2021/07/25 16:04:22;;;;;;;9.50;7.75;;;;;;;;;;5027206;28;20076;-77
2021/07/25 16:07:07;;;;;;;8.50;7.45;;;;;;;;;;5002127;28;20033;-78
2021/07/25 16:09:55;;;;;;;8.70;7.53;;;;;;;;;;5024864;28;20040;-77
2021/07/25 16:12:39;;;;;;;9.60;7.57;;;;;;;;;;5013510;28;20048;-78
2021/07/25 16:15:24;;;;;;;8.70;7.32;;;;;;;;;;5026547;28;20080;-76
2021/07/25 16:18:08;;;;;;;8.70;7.10;;;;;;;;;;5025883;28;20501;-76
2021/07/25 16:20:54;;;;;;;9.52;7.38;;;;;;;;;;5027857;28;20410;-76
2021/07/25 16:23:38;;;;;;;8.32;7.18;;;;;;;;;;5027012;28;20044;-77
2021/07/25 16:26:24;;;;;;;8.27;7.03;;;;;;;;;;5019774;28;20063;-77
2021/07/25 16:29:08;;;;;;;8.63;7.32;;;;;;;;;;5022375;28;20116;-77
2021/07/25 16:31:53;;;;;;;9.48;7.55;;;;;;;;;;5024695;28;20116;-77
2021/07/25 16:34:37;;;;;;;9.23;7.25;;;;;;;;;;5026397;28;20036;-76
2021/07/25 16:37:22;;;;;;;9.65;7.75;;;;;;;;;;5008332;28;20145;-77